Time;durP1;ratioP1;P1;durP2;ratioP2;P2;SDS_P1;SDS_P2;PMS_P1;PMS_P2;Temp;Humidity;BMP_temperature;BMP_pressure;BME280_temperature;BME280_humidity;BME280_pressure;Samples;Min_cycle;Max_cycle;Signal;HPM_P1;HPM_P2
2023/05/13 00:01:55;;;;;;;18.40;16.42;;;;;;;;;;5040411;28;20140;-76
2023/05/13 00:04:21;;;;;;;21.52;17.88;;;;;;;;;;5034619;28;20497;-76
2023/05/13 00:06:47;;;;;;;20.48;16.77;;;;;;;;;;5033828;28;20109;-76
2023/05/13 00:09:13;;;;;;;20.70;15.70;;;;;;;;;;5034686;28;20049;-74
2023/05/13 00:11:40;;;;;;;19.48;16.70;;;;;;;;;;5030383;28;20053;-74
2023/05/13 00:14:08;;;;;;;17.90;16.10;;;;;;;;;;5025591;28;20064;-75
2023/05/13 00:16:34;;;;;;;20.75;16.85;;;;;;;;;;5025520;28;20057;-74
2023/05/13 00:19:00;;;;;;;18.63;16.17;;;;;;;;;;5028839;28;20068;-75
2023/05/13 00:21:26;;;;;;;19.13;16.10;;;;;;;;;;5025790;28;20973;-75
2023/05/13 00:23:52;;;;;;;19.55;16.30;;;;;;;;;;5026234;28;20041;-75
2023/05/13 00:26:18;;;;;;;18.08;16.17;;;;;;;;;;5031015;28;20041;-76
2023/05/13 00:28:44;;;;;;;18.80;16.50;;;;;;;;;;5031961;28;20128;-75
2023/05/13 00:31:10;;;;;;;16.85;15.05;;;;;;;;;;5029728;28;20132;-74
2023/05/13 00:33:37;;;;;;;17.58;15.32;;;;;;;;;;5026715;28;20044;-75
2023/05/13 00:36:03;;;;;;;17.67;15.07;;;;;;;;;;5029416;28;20087;-75
2023/05/13 00:38:29;;;;;;;17.63;14.35;;;;;;;;;;5033217;28;20396;-75
2023/05/13 00:40:55;;;;;;;16.85;15.00;;;;;;;;;;5032369;28;20128;-75
2023/05/13 00:43:21;;;;;;;18.10;14.23;;;;;;;;;;5035498;28;20128;-75
2023/05/13 00:45:47;;;;;;;17.83;14.48;;;;;;;;;;5047857;28;20041;-75
2023/05/13 00:48:13;;;;;;;15.85;13.27;;;;;;;;;;5043785;28;20095;-74
2023/05/13 00:50:43;;;;;;;16.55;13.18;;;;;;;;;;5032455;28;20489;-75
2023/05/13 00:53:10;;;;;;;14.30;12.80;;;;;;;;;;5031366;28;20524;-75
2023/05/13 00:55:36;;;;;;;15.75;13.00;;;;;;;;;;5035853;28;20041;-76
2023/05/13 00:58:02;;;;;;;13.90;12.35;;;;;;;;;;5031267;28;20486;-74
2023/05/13 01:00:30;;;;;;;14.55;12.48;;;;;;;;;;5031316;28;20129;-75
2023/05/13 01:03:05;;;;;;;15.27;13.60;;;;;;;;;;5025417;28;20053;-75
2023/05/13 01:05:38;;;;;;;14.90;13.38;;;;;;;;;;5029809;28;20041;-75
2023/05/13 01:08:11;;;;;;;13.60;12.13;;;;;;;;;;5031109;28;20053;-75
2023/05/13 01:10:43;;;;;;;13.15;11.82;;;;;;;;;;5032555;28;20049;-75
2023/05/13 01:13:11;;;;;;;14.60;12.45;;;;;;;;;;5032790;28;20045;-76
2023/05/13 01:15:40;;;;;;;15.77;13.00;;;;;;;;;;5026105;28;20060;-76
2023/05/13 01:18:10;;;;;;;14.38;12.88;;;;;;;;;;5025267;28;20096;-75
2023/05/13 01:20:38;;;;;;;13.10;11.73;;;;;;;;;;5026111;28;20115;-75
2023/05/13 01:23:05;;;;;;;13.35;11.95;;;;;;;;;;5029110;28;20508;-75
2023/05/13 01:25:31;;;;;;;18.35;11.23;;;;;;;;;;5028882;28;20037;-75
2023/05/13 01:27:57;;;;;;;13.55;11.27;;;;;;;;;;5029278;28;20041;-75
2023/05/13 01:30:23;;;;;;;13.40;12.00;;;;;;;;;;5025874;28;20042;-75
2023/05/13 01:32:50;;;;;;;14.57;12.80;;;;;;;;;;5028160;28;20099;-75
2023/05/13 01:35:17;;;;;;;14.52;13.02;;;;;;;;;;5031247;28;20555;-75
2023/05/13 01:37:43;;;;;;;16.73;13.10;;;;;;;;;;5031101;28;20397;-75
2023/05/13 01:40:10;;;;;;;16.88;13.63;;;;;;;;;;5025238;28;20099;-74
2023/05/13 01:42:36;;;;;;;14.68;13.10;;;;;;;;;;5035765;28;20435;-74
2023/05/13 01:45:02;;;;;;;17.42;13.98;;;;;;;;;;5033492;28;20051;-75
2023/05/13 01:47:28;;;;;;;17.23;14.23;;;;;;;;;;5035759;28;20480;-75
2023/05/13 01:49:55;;;;;;;18.17;15.07;;;;;;;;;;5038484;28;20055;-75
2023/05/13 01:52:21;;;;;;;18.20;14.70;;;;;;;;;;5051188;28;20443;-75
2023/05/13 01:54:46;;;;;;;18.25;16.00;;;;;;;;;;5052416;28;20044;-75
2023/05/13 01:57:13;;;;;;;20.38;17.42;;;;;;;;;;5047598;28;20053;-75
2023/05/13 01:59:39;;;;;;;20.85;17.27;;;;;;;;;;5031484;28;20557;-75
2023/05/13 02:02:05;;;;;;;20.48;17.23;;;;;;;;;;5030605;28;20044;-75
2023/05/13 02:04:31;;;;;;;20.20;17.33;;;;;;;;;;5031005;28;20053;-75
2023/05/13 02:06:57;;;;;;;22.33;16.48;;;;;;;;;;5023301;28;20029;-75
2023/05/13 02:09:23;;;;;;;18.95;16.95;;;;;;;;;;5027904;28;20068;-75
2023/05/13 02:11:49;;;;;;;18.20;16.10;;;;;;;;;;5029667;28;20176;-75
2023/05/13 02:14:16;;;;;;;17.48;15.68;;;;;;;;;;5029395;28;20049;-75
2023/05/13 02:16:42;;;;;;;19.33;16.20;;;;;;;;;;5029144;28;20038;-74
2023/05/13 02:19:08;;;;;;;19.58;16.02;;;;;;;;;;5026062;28;20049;-75
2023/05/13 02:21:34;;;;;;;20.27;17.13;;;;;;;;;;5026139;28;20051;-75
2023/05/13 02:24:00;;;;;;;21.63;17.90;;;;;;;;;;5028192;28;20119;-75
2023/05/13 02:26:26;;;;;;;20.88;16.20;;;;;;;;;;5026678;28;20458;-74
2023/05/13 02:28:52;;;;;;;19.45;17.38;;;;;;;;;;5032403;28;20396;-75
2023/05/13 02:31:18;;;;;;;19.02;16.98;;;;;;;;;;5024207;28;20041;-75
2023/05/13 02:33:44;;;;;;;20.48;17.42;;;;;;;;;;5026225;28;20111;-75
2023/05/13 02:36:10;;;;;;;21.67;17.67;;;;;;;;;;5026653;28;20060;-75
2023/05/13 02:38:36;;;;;;;20.25;18.15;;;;;;;;;;5025306;28;20192;-75
2023/05/13 02:41:02;;;;;;;22.33;17.33;;;;;;;;;;5028054;28;20111;-74
2023/05/13 02:43:28;;;;;;;20.65;16.52;;;;;;;;;;5028456;28;20092;-75
2023/05/13 02:45:54;;;;;;;18.83;16.30;;;;;;;;;;5035384;28;20037;-75
2023/05/13 02:48:21;;;;;;;17.83;15.98;;;;;;;;;;5044619;28;20151;-75
2023/05/13 02:50:47;;;;;;;18.80;16.20;;;;;;;;;;5044867;28;20041;-75
2023/05/13 02:53:13;;;;;;;19.10;16.77;;;;;;;;;;5046547;28;20454;-75
2023/05/13 02:55:39;;;;;;;17.73;15.93;;;;;;;;;;5030313;28;20057;-75
2023/05/13 02:58:05;;;;;;;19.10;17.17;;;;;;;;;;5031014;28;20054;-75
2023/05/13 03:00:31;;;;;;;20.77;17.65;;;;;;;;;;5032286;28;20409;-75
2023/05/13 03:02:57;;;;;;;23.35;20.83;;;;;;;;;;5031167;28;20038;-75
2023/05/13 03:05:23;;;;;;;23.92;21.00;;;;;;;;;;5028974;28;20559;-74
2023/05/13 03:07:49;;;;;;;24.90;19.73;;;;;;;;;;5032484;28;20037;-75
2023/05/13 03:10:15;;;;;;;23.15;19.73;;;;;;;;;;5026787;28;20122;-74
2023/05/13 03:12:42;;;;;;;24.98;20.90;;;;;;;;;;5032191;28;20041;-74
2023/05/13 03:15:08;;;;;;;26.00;21.13;;;;;;;;;;5032608;28;20080;-75
2023/05/13 03:17:34;;;;;;;22.90;20.50;;;;;;;;;;5026051;28;20053;-75
2023/05/13 03:20:00;;;;;;;26.33;21.38;;;;;;;;;;5025319;28;20045;-75
2023/05/13 03:22:26;;;;;;;24.65;20.70;;;;;;;;;;5027347;28;20071;-75
2023/05/13 03:24:52;;;;;;;26.30;20.98;;;;;;;;;;5022915;28;20080;-75
2023/05/13 03:27:19;;;;;;;26.17;21.98;;;;;;;;;;5025599;28;20487;-75
2023/05/13 03:29:45;;;;;;;26.90;21.60;;;;;;;;;;5028038;28;20111;-75
2023/05/13 03:32:11;;;;;;;24.90;20.48;;;;;;;;;;5032207;28;20045;-75
2023/05/13 03:34:37;;;;;;;23.85;19.27;;;;;;;;;;5029656;28;20049;-75
2023/05/13 03:37:04;;;;;;;21.90;19.55;;;;;;;;;;5024575;28;20045;-75
2023/05/13 03:39:30;;;;;;;23.20;19.65;;;;;;;;;;5025601;28;20508;-75
2023/05/13 03:41:56;;;;;;;23.75;21.20;;;;;;;;;;5031748;28;20039;-75
2023/05/13 03:44:22;;;;;;;22.35;19.02;;;;;;;;;;5044115;28;20091;-74
2023/05/13 03:46:48;;;;;;;21.42;18.35;;;;;;;;;;5031223;28;20053;-74
2023/05/13 03:49:14;;;;;;;21.33;17.65;;;;;;;;;;5050408;28;20381;-75
2023/05/13 03:51:40;;;;;;;20.85;18.23;;;;;;;;;;5043765;28;20130;-75
2023/05/13 03:54:06;;;;;;;20.20;17.60;;;;;;;;;;5032009;28;20049;-74
2023/05/13 03:56:32;;;;;;;21.33;16.52;;;;;;;;;;5030084;28;20059;-75
2023/05/13 03:58:58;;;;;;;19.13;16.60;;;;;;;;;;5025019;28;20080;-75
2023/05/13 04:01:24;;;;;;;18.00;16.10;;;;;;;;;;5026992;28;20086;-75
2023/05/13 04:03:50;;;;;;;22.95;16.45;;;;;;;;;;5024970;28;20037;-74
2023/05/13 04:06:16;;;;;;;21.33;15.75;;;;;;;;;;5024523;28;20045;-74
2023/05/13 04:08:43;;;;;;;20.83;16.00;;;;;;;;;;5026602;28;20052;-75
2023/05/13 04:11:09;;;;;;;17.25;14.25;;;;;;;;;;5023368;28;20060;-75
2023/05/13 04:13:35;;;;;;;16.60;14.35;;;;;;;;;;5023144;28;20040;-75
2023/05/13 04:16:01;;;;;;;18.20;14.50;;;;;;;;;;5025640;28;21425;-75
2023/05/13 04:18:30;;;;;;;17.50;14.65;;;;;;;;;;5032027;28;20201;-75
2023/05/13 04:20:56;;;;;;;18.10;14.52;;;;;;;;;;5025253;28;20049;-75
2023/05/13 04:23:22;;;;;;;18.23;15.35;;;;;;;;;;5024237;28;20049;-75
2023/05/13 04:25:52;;;;;;;16.60;14.48;;;;;;;;;;5024735;28;20036;-75
2023/05/13 04:28:19;;;;;;;20.80;14.88;;;;;;;;;;5023124;28;20046;-75
2023/05/13 04:30:45;;;;;;;16.63;13.93;;;;;;;;;;5025840;28;20047;-75
2023/05/13 04:33:11;;;;;;;17.17;14.07;;;;;;;;;;5026712;28;20049;-75
2023/05/13 04:35:37;;;;;;;17.67;13.95;;;;;;;;;;5026153;28;20051;-74
2023/05/13 04:38:04;;;;;;;17.52;14.63;;;;;;;;;;5028353;28;20594;-75
2023/05/13 04:40:30;;;;;;;15.38;13.50;;;;;;;;;;5028507;28;20048;-74
2023/05/13 04:42:56;;;;;;;16.98;13.50;;;;;;;;;;5034287;28;20041;-75
2023/05/13 04:45:23;;;;;;;14.32;12.43;;;;;;;;;;5050921;28;20041;-75
2023/05/13 04:47:49;;;;;;;16.52;13.20;;;;;;;;;;5049475;28;20091;-75
2023/05/13 04:50:15;;;;;;;16.88;12.80;;;;;;;;;;5043440;28;20041;-75
2023/05/13 04:52:41;;;;;;;14.82;12.05;;;;;;;;;;5047533;28;20516;-75
2023/05/13 04:55:11;;;;;;;13.95;11.60;;;;;;;;;;5032891;28;20049;-75
2023/05/13 04:57:37;;;;;;;17.17;12.88;;;;;;;;;;5042323;28;20057;-75
2023/05/13 05:00:04;;;;;;;14.82;11.90;;;;;;;;;;5049878;28;20489;-75
2023/05/13 05:02:30;;;;;;;15.38;12.00;;;;;;;;;;5033390;28;20484;-75
2023/05/13 05:04:56;;;;;;;15.90;12.63;;;;;;;;;;5035195;28;20086;-74
2023/05/13 05:07:22;;;;;;;17.48;12.15;;;;;;;;;;5031168;28;20041;-74
2023/05/13 05:09:48;;;;;;;14.00;11.43;;;;;;;;;;5027321;28;20484;-75
2023/05/13 05:12:14;;;;;;;15.73;12.00;;;;;;;;;;5029631;28;20053;-75
2023/05/13 05:14:40;;;;;;;14.23;11.13;;;;;;;;;;5029051;28;20136;-75
2023/05/13 05:17:07;;;;;;;13.45;11.15;;;;;;;;;;5029240;28;20503;-75
2023/05/13 05:19:33;;;;;;;14.27;11.63;;;;;;;;;;5030887;28;20048;-75
2023/05/13 05:21:59;;;;;;;17.10;12.18;;;;;;;;;;5025544;28;20049;-75
2023/05/13 05:24:25;;;;;;;15.45;12.45;;;;;;;;;;5025288;28;20045;-75
2023/05/13 05:26:51;;;;;;;13.77;12.38;;;;;;;;;;5026363;28;20041;-74
2023/05/13 05:29:17;;;;;;;15.10;12.95;;;;;;;;;;5027700;28;21499;-75
2023/05/13 05:31:43;;;;;;;14.43;12.65;;;;;;;;;;5030169;28;20052;-75
2023/05/13 05:34:09;;;;;;;17.00;13.23;;;;;;;;;;5030211;28;20072;-75
2023/05/13 05:36:35;;;;;;;17.17;14.55;;;;;;;;;;5027654;28;20041;-75
2023/05/13 05:39:01;;;;;;;16.05;13.45;;;;;;;;;;5025121;28;20045;-75
2023/05/13 05:41:28;;;;;;;17.30;13.52;;;;;;;;;;5028597;28;20433;-75
2023/05/13 05:43:54;;;;;;;17.33;13.73;;;;;;;;;;5027799;28;20049;-75
2023/05/13 05:46:21;;;;;;;16.38;13.73;;;;;;;;;;5025664;28;20091;-75
2023/05/13 05:48:47;;;;;;;15.70;13.55;;;;;;;;;;5031170;28;20485;-76
2023/05/13 05:51:13;;;;;;;15.52;13.15;;;;;;;;;;5029213;28;20049;-76
2023/05/13 05:53:41;;;;;;;15.43;12.85;;;;;;;;;;5026693;28;20045;-76
2023/05/13 05:56:07;;;;;;;14.63;12.73;;;;;;;;;;5026801;28;20477;-76
2023/05/13 05:58:33;;;;;;;16.50;14.25;;;;;;;;;;5025599;28;20052;-76
2023/05/13 06:00:59;;;;;;;16.80;13.95;;;;;;;;;;5028680;28;20401;-76
2023/05/13 06:03:26;;;;;;;16.05;13.60;;;;;;;;;;5028678;28;20049;-76
2023/05/13 06:05:52;;;;;;;15.63;12.93;;;;;;;;;;5033565;28;20048;-76
2023/05/13 06:08:18;;;;;;;15.70;12.65;;;;;;;;;;5028161;28;20095;-76
2023/05/13 06:10:44;;;;;;;16.17;13.15;;;;;;;;;;5028454;28;20041;-76
2023/05/13 06:13:11;;;;;;;16.80;12.70;;;;;;;;;;5025671;28;20053;-76
2023/05/13 06:15:40;;;;;;;17.77;12.63;;;;;;;;;;5025833;28;20062;-76
2023/05/13 06:18:06;;;;;;;14.43;11.93;;;;;;;;;;5032231;28;20041;-77
2023/05/13 06:20:32;;;;;;;13.68;12.02;;;;;;;;;;5025336;28;20773;-76
2023/05/13 06:22:58;;;;;;;14.55;11.32;;;;;;;;;;5031030;28;20132;-76
2023/05/13 06:25:24;;;;;;;18.10;12.73;;;;;;;;;;5024701;28;20124;-76
2023/05/13 06:27:50;;;;;;;16.55;12.75;;;;;;;;;;5026723;28;20125;-75
2023/05/13 06:30:16;;;;;;;15.45;12.35;;;;;;;;;;5025985;28;20045;-76
2023/05/13 06:32:43;;;;;;;12.82;11.50;;;;;;;;;;5025596;28;20099;-75
2023/05/13 06:35:09;;;;;;;15.98;11.82;;;;;;;;;;5026401;28;20128;-75
2023/05/13 06:37:35;;;;;;;11.85;10.38;;;;;;;;;;5030770;28;20045;-75
2023/05/13 06:40:01;;;;;;;12.85;10.80;;;;;;;;;;5041410;28;20087;-75
2023/05/13 06:42:27;;;;;;;15.73;11.15;;;;;;;;;;5051470;28;20041;-75
2023/05/13 06:44:53;;;;;;;13.45;10.23;;;;;;;;;;5037037;28;20055;-75
2023/05/13 06:47:19;;;;;;;14.30;10.00;;;;;;;;;;5029171;28;20039;-75
2023/05/13 06:49:45;;;;;;;12.43;10.63;;;;;;;;;;5045686;28;20049;-74
2023/05/13 06:52:11;;;;;;;15.43;11.00;;;;;;;;;;5049647;28;20048;-74
2023/05/13 06:54:37;;;;;;;13.50;10.80;;;;;;;;;;5032287;28;20420;-75
2023/05/13 06:57:06;;;;;;;10.80;9.25;;;;;;;;;;5039173;28;20129;-75
2023/05/13 06:59:32;;;;;;;16.17;10.55;;;;;;;;;;5032796;28;20444;-75
2023/05/13 07:01:58;;;;;;;14.30;10.48;;;;;;;;;;5032909;28;20044;-75
2023/05/13 07:04:24;;;;;;;12.25;10.68;;;;;;;;;;5050473;28;20144;-75
2023/05/13 07:06:51;;;;;;;12.50;10.75;;;;;;;;;;5041713;28;20052;-74
2023/05/13 07:09:17;;;;;;;11.95;10.32;;;;;;;;;;5030486;28;20120;-75
2023/05/13 07:11:43;;;;;;;12.18;10.68;;;;;;;;;;5032635;28;20041;-75
2023/05/13 07:14:09;;;;;;;12.75;11.07;;;;;;;;;;5052173;28;20052;-74
2023/05/13 07:16:35;;;;;;;11.20;9.38;;;;;;;;;;5049690;28;20033;-75
2023/05/13 07:19:01;;;;;;;12.90;10.38;;;;;;;;;;5044964;28;20099;-75
2023/05/13 07:21:27;;;;;;;13.02;10.48;;;;;;;;;;5037842;28;20439;-74
2023/05/13 07:23:53;;;;;;;12.00;9.80;;;;;;;;;;5031317;28;20042;-75
2023/05/13 07:26:20;;;;;;;10.60;9.50;;;;;;;;;;5030599;28;20115;-75
2023/05/13 07:28:46;;;;;;;12.75;10.38;;;;;;;;;;5031032;28;20057;-75
2023/05/13 07:31:12;;;;;;;15.98;10.05;;;;;;;;;;5029896;28;20559;-74
2023/05/13 07:33:38;;;;;;;10.50;9.40;;;;;;;;;;5029960;28;20041;-75
2023/05/13 07:36:05;;;;;;;13.00;10.07;;;;;;;;;;5032119;28;20045;-75
2023/05/13 07:38:31;;;;;;;13.27;10.35;;;;;;;;;;5050453;28;20542;-75
2023/05/13 07:40:57;;;;;;;12.90;11.23;;;;;;;;;;5049131;28;20067;-75
2023/05/13 07:43:23;;;;;;;11.70;9.68;;;;;;;;;;5048650;28;20468;-75
2023/05/13 07:45:50;;;;;;;11.90;8.45;;;;;;;;;;5033771;28;20461;-75
2023/05/13 07:48:16;;;;;;;11.23;9.77;;;;;;;;;;5034086;28;20436;-75
2023/05/13 07:50:43;;;;;;;10.68;9.57;;;;;;;;;;5050731;28;20075;-75
2023/05/13 07:53:09;;;;;;;11.32;10.15;;;;;;;;;;5041422;28;20493;-75
2023/05/13 07:55:35;;;;;;;10.50;9.38;;;;;;;;;;5027046;28;20080;-75
2023/05/13 07:58:02;;;;;;;10.90;9.70;;;;;;;;;;5024702;28;20057;-75
2023/05/13 08:00:28;;;;;;;11.60;9.40;;;;;;;;;;5026457;28;20374;-76
2023/05/13 08:02:54;;;;;;;10.70;8.77;;;;;;;;;;5026760;28;20077;-76
2023/05/13 08:05:21;;;;;;;11.75;9.63;;;;;;;;;;5035503;28;20072;-76
2023/05/13 08:07:47;;;;;;;13.27;10.02;;;;;;;;;;5049473;28;20045;-75
2023/05/13 08:10:13;;;;;;;12.18;9.27;;;;;;;;;;5030975;28;20053;-76
2023/05/13 08:12:39;;;;;;;11.88;9.48;;;;;;;;;;5037846;28;20043;-76
2023/05/13 08:15:06;;;;;;;9.90;8.88;;;;;;;;;;5033301;28;20052;-77
2023/05/13 08:17:32;;;;;;;10.18;9.07;;;;;;;;;;5033809;28;20128;-77
2023/05/13 08:19:58;;;;;;;10.60;7.85;;;;;;;;;;5033477;28;20053;-75
2023/05/13 08:22:24;;;;;;;14.65;9.10;;;;;;;;;;5034346;28;20052;-75
2023/05/13 08:24:51;;;;;;;12.43;8.57;;;;;;;;;;5034755;28;20412;-75
2023/05/13 08:27:17;;;;;;;10.10;8.52;;;;;;;;;;5042223;28;20041;-75
2023/05/13 08:29:43;;;;;;;11.40;8.98;;;;;;;;;;5049580;28;20048;-75
2023/05/13 08:32:09;;;;;;;10.20;8.18;;;;;;;;;;5044187;28;20132;-75
2023/05/13 08:34:35;;;;;;;11.10;9.02;;;;;;;;;;5036458;28;20049;-75
2023/05/13 08:37:01;;;;;;;9.23;8.00;;;;;;;;;;5034673;28;20451;-75
2023/05/13 08:39:28;;;;;;;11.18;9.27;;;;;;;;;;5034052;28;20045;-75
2023/05/13 08:41:56;;;;;;;13.18;9.30;;;;;;;;;;5039595;28;20064;-74
2023/05/13 08:44:27;;;;;;;12.23;9.38;;;;;;;;;;5048048;28;20045;-75
2023/05/13 08:46:58;;;;;;;13.32;8.93;;;;;;;;;;5047239;28;20049;-75
2023/05/13 08:49:24;;;;;;;12.68;9.02;;;;;;;;;;5056511;28;20472;-75
2023/05/13 08:51:50;;;;;;;10.98;9.30;;;;;;;;;;5054502;28;20488;-75
2023/05/13 08:54:17;;;;;;;13.65;10.18;;;;;;;;;;5055164;28;20495;-75
2023/05/13 08:56:43;;;;;;;13.27;9.20;;;;;;;;;;5049779;28;20053;-75
2023/05/13 08:59:09;;;;;;;10.45;9.35;;;;;;;;;;5057337;28;20079;-75
2023/05/13 09:01:35;;;;;;;13.35;10.00;;;;;;;;;;5071498;28;20037;-76
2023/05/13 09:04:03;;;;;;;12.70;9.85;;;;;;;;;;5059322;28;20040;-75
2023/05/13 09:06:30;;;;;;;12.18;9.52;;;;;;;;;;5065821;28;20075;-75
2023/05/13 09:08:56;;;;;;;11.65;10.20;;;;;;;;;;5050305;28;20037;-75
2023/05/13 09:11:22;;;;;;;13.68;10.43;;;;;;;;;;5055608;28;20048;-75
2023/05/13 09:14:06;;;;;;;13.23;10.88;;;;;;;;;;5051095;28;20048;-75
2023/05/13 09:16:32;;;;;;;12.18;10.60;;;;;;;;;;5052086;28;20757;-75
2023/05/13 09:18:59;;;;;;;13.18;11.45;;;;;;;;;;5053047;28;20068;-75
2023/05/13 09:21:26;;;;;;;13.35;10.85;;;;;;;;;;5044693;28;20164;-75
2023/05/13 09:23:56;;;;;;;14.15;11.75;;;;;;;;;;5045497;28;20131;-75
2023/05/13 09:26:28;;;;;;;14.27;11.23;;;;;;;;;;5055637;28;20036;-76
2023/05/13 09:29:12;;;;;;;13.73;10.82;;;;;;;;;;5058653;28;20041;-75
2023/05/13 09:31:38;;;;;;;15.20;11.27;;;;;;;;;;5059029;28;20047;-75
2023/05/13 09:34:04;;;;;;;14.93;11.45;;;;;;;;;;5072183;28;20053;-75
2023/05/13 09:36:31;;;;;;;13.13;11.18;;;;;;;;;;5068916;28;20040;-76
2023/05/13 09:38:58;;;;;;;13.77;11.20;;;;;;;;;;5055775;28;20087;-75
2023/05/13 09:41:26;;;;;;;13.10;11.15;;;;;;;;;;5060311;28;20056;-75
2023/05/13 09:43:52;;;;;;;12.30;10.98;;;;;;;;;;5044097;28;20076;-75
2023/05/13 09:46:18;;;;;;;13.98;10.27;;;;;;;;;;5050296;28;20044;-76
2023/05/13 09:48:44;;;;;;;13.85;10.88;;;;;;;;;;5053765;28;20135;-75
2023/05/13 09:51:10;;;;;;;13.38;11.43;;;;;;;;;;5046091;28;20068;-75
2023/05/13 09:53:37;;;;;;;12.45;10.77;;;;;;;;;;5031724;28;20488;-75
2023/05/13 09:56:03;;;;;;;15.45;12.18;;;;;;;;;;5031245;28;20131;-75
2023/05/13 09:58:31;;;;;;;13.25;10.93;;;;;;;;;;5039547;28;20152;-75
2023/05/13 10:00:58;;;;;;;12.52;11.23;;;;;;;;;;5033018;28;20117;-75
2023/05/13 10:03:24;;;;;;;13.80;10.38;;;;;;;;;;5037352;28;20103;-76
2023/05/13 10:05:51;;;;;;;14.05;10.18;;;;;;;;;;5034808;28;20048;-75
2023/05/13 10:08:17;;;;;;;11.52;10.30;;;;;;;;;;5032246;28;20047;-75
2023/05/13 10:10:44;;;;;;;11.88;10.23;;;;;;;;;;5030096;28;20412;-75
2023/05/13 10:13:15;;;;;;;12.98;11.40;;;;;;;;;;5035015;28;20049;-75
2023/05/13 10:15:51;;;;;;;15.35;10.88;;;;;;;;;;5031985;28;20432;-75
2023/05/13 10:18:19;;;;;;;11.63;9.80;;;;;;;;;;5031309;28;20053;-75
2023/05/13 10:20:45;;;;;;;13.73;10.75;;;;;;;;;;5048989;28;20103;-75
2023/05/13 10:23:11;;;;;;;12.48;10.30;;;;;;;;;;5046885;28;20045;-75
2023/05/13 10:25:37;;;;;;;13.48;11.43;;;;;;;;;;5065615;28;20049;-75
2023/05/13 10:28:04;;;;;;;14.45;11.35;;;;;;;;;;5063271;28;20059;-75
2023/05/13 10:30:31;;;;;;;12.30;10.85;;;;;;;;;;5057471;28;20045;-75
2023/05/13 10:33:00;;;;;;;13.38;10.85;;;;;;;;;;5026551;28;20045;-75
2023/05/13 10:35:29;;;;;;;13.88;11.25;;;;;;;;;;5026921;28;20045;-74
2023/05/13 10:37:58;;;;;;;14.32;11.35;;;;;;;;;;5026524;28;20484;-76
2023/05/13 10:40:39;;;;;;;13.63;10.55;;;;;;;;;;5026637;28;20046;-75
2023/05/13 10:43:15;;;;;;;12.75;11.45;;;;;;;;;;5031201;28;20432;-76
2023/05/13 10:45:46;;;;;;;14.45;11.40;;;;;;;;;;5025607;28;20564;-75
2023/05/13 10:48:13;;;;;;;13.98;11.88;;;;;;;;;;5030778;28;20501;-75
2023/05/13 10:50:39;;;;;;;15.07;11.55;;;;;;;;;;5063831;28;20040;-75
2023/05/13 10:53:09;;;;;;;16.65;11.20;;;;;;;;;;5045165;28;20182;-76
2023/05/13 10:55:45;;;;;;;14.82;12.20;;;;;;;;;;5040821;28;20487;-75
2023/05/13 10:58:14;;;;;;;16.80;12.15;;;;;;;;;;5046482;28;20098;-74
2023/05/13 11:00:42;;;;;;;14.07;11.13;;;;;;;;;;5045624;28;20057;-75
2023/05/13 11:03:28;;;;;;;13.30;11.50;;;;;;;;;;5041081;28;20377;-75
2023/05/13 11:05:59;;;;;;;16.08;11.40;;;;;;;;;;5051735;28;20147;-75
2023/05/13 11:08:38;;;;;;;16.35;12.35;;;;;;;;;;5041459;28;20132;-75
2023/05/13 11:11:22;;;;;;;15.13;11.45;;;;;;;;;;5038063;28;20041;-76
2023/05/13 11:13:49;;;;;;;14.25;11.32;;;;;;;;;;5037425;28;20049;-75
2023/05/13 11:16:15;;;;;;;13.25;10.10;;;;;;;;;;5069687;28;20055;-75
2023/05/13 11:18:41;;;;;;;19.00;12.95;;;;;;;;;;5060752;28;20130;-75
2023/05/13 11:21:08;;;;;;;12.95;11.52;;;;;;;;;;5058259;28;20060;-75
2023/05/13 11:23:49;;;;;;;15.60;12.02;;;;;;;;;;5026707;28;20388;-75
2023/05/13 11:26:16;;;;;;;14.15;10.90;;;;;;;;;;5025237;28;20099;-75
2023/05/13 11:29:00;;;;;;;12.63;10.85;;;;;;;;;;5026730;28;20073;-74
2023/05/13 11:31:27;;;;;;;15.70;11.35;;;;;;;;;;5028713;28;20041;-75
2023/05/13 11:34:08;;;;;;;12.75;11.05;;;;;;;;;;5063298;28;20087;-76
2023/05/13 11:36:34;;;;;;;11.90;10.60;;;;;;;;;;5041603;28;20046;-75
2023/05/13 11:39:06;;;;;;;13.48;12.07;;;;;;;;;;5032908;28;20041;-76
2023/05/13 11:41:33;;;;;;;15.00;11.13;;;;;;;;;;5063696;28;20053;-75
2023/05/13 11:44:02;;;;;;;12.52;11.23;;;;;;;;;;5037112;28;20072;-75
2023/05/13 11:46:28;;;;;;;16.95;11.77;;;;;;;;;;5037538;28;20045;-75
2023/05/13 11:48:54;;;;;;;16.20;11.73;;;;;;;;;;5035504;28;20045;-75
2023/05/13 11:51:20;;;;;;;12.80;11.30;;;;;;;;;;5034290;28;20072;-75
2023/05/13 11:53:46;;;;;;;13.35;10.50;;;;;;;;;;5052190;28;20056;-75
2023/05/13 11:56:13;;;;;;;13.57;10.68;;;;;;;;;;5037404;28;20044;-75
2023/05/13 11:58:39;;;;;;;14.13;9.85;;;;;;;;;;5034614;28;20183;-76
2023/05/13 12:01:05;;;;;;;11.13;10.02;;;;;;;;;;5071182;28;20532;-75
2023/05/13 12:03:31;;;;;;;11.40;9.82;;;;;;;;;;5074889;28;20045;-75
2023/05/13 12:06:01;;;;;;;14.00;10.00;;;;;;;;;;5038160;28;20195;-75
2023/05/13 12:08:27;;;;;;;15.50;10.27;;;;;;;;;;5040097;28;20033;-76
2023/05/13 12:10:53;;;;;;;11.93;9.75;;;;;;;;;;5036521;28;20048;-75
2023/05/13 12:13:19;;;;;;;13.77;9.63;;;;;;;;;;5032758;28;20037;-76
2023/05/13 12:15:46;;;;;;;13.38;10.70;;;;;;;;;;5032738;28;20487;-76
2023/05/13 12:18:12;;;;;;;12.57;9.77;;;;;;;;;;5032387;28;20852;-75
2023/05/13 12:20:38;;;;;;;12.80;9.18;;;;;;;;;;5029374;28;20045;-76
2023/05/13 12:23:05;;;;;;;11.73;9.73;;;;;;;;;;5062948;28;20088;-76
2023/05/13 12:25:34;;;;;;;11.43;8.95;;;;;;;;;;5031045;28;20042;-75
2023/05/13 12:28:13;;;;;;;15.52;9.55;;;;;;;;;;5028530;28;20041;-75
2023/05/13 12:30:40;;;;;;;11.32;10.13;;;;;;;;;;5060863;28;20049;-76
2023/05/13 12:33:12;;;;;;;13.43;10.30;;;;;;;;;;5035365;28;20041;-76
2023/05/13 12:35:38;;;;;;;10.52;9.52;;;;;;;;;;5030464;28;20060;-76
2023/05/13 12:38:05;;;;;;;11.80;10.15;;;;;;;;;;5061531;28;20052;-76
2023/05/13 12:40:31;;;;;;;12.70;10.18;;;;;;;;;;5033066;28;20202;-76
2023/05/13 12:42:58;;;;;;;12.85;10.50;;;;;;;;;;5026532;28;20056;-76
2023/05/13 12:45:28;;;;;;;14.10;10.85;;;;;;;;;;5033101;28;20044;-76
2023/05/13 12:47:55;;;;;;;12.10;10.38;;;;;;;;;;5042928;28;20080;-76
2023/05/13 12:50:21;;;;;;;14.35;10.27;;;;;;;;;;5052021;28;20045;-76
2023/05/13 12:52:47;;;;;;;14.32;10.95;;;;;;;;;;5056434;28;20041;-76
2023/05/13 12:55:13;;;;;;;11.93;10.15;;;;;;;;;;5042946;28;20045;-76
2023/05/13 12:57:41;;;;;;;12.95;10.88;;;;;;;;;;5032914;28;20068;-77
2023/05/13 13:00:09;;;;;;;12.05;10.18;;;;;;;;;;5048191;28;20041;-77
2023/05/13 13:02:35;;;;;;;13.93;10.80;;;;;;;;;;5052220;28;20492;-77
2023/05/13 13:05:02;;;;;;;13.35;10.15;;;;;;;;;;5051418;28;20045;-76
2023/05/13 13:07:28;;;;;;;12.30;10.40;;;;;;;;;;5052011;28;20072;-76
2023/05/13 13:09:54;;;;;;;14.55;9.77;;;;;;;;;;5046834;28;20084;-76
2023/05/13 13:12:20;;;;;;;11.93;9.82;;;;;;;;;;5032505;28;20052;-76
2023/05/13 13:14:46;;;;;;;11.55;9.70;;;;;;;;;;5026565;28;20132;-76
2023/05/13 13:17:12;;;;;;;12.07;9.88;;;;;;;;;;5027535;28;20124;-76
2023/05/13 13:19:38;;;;;;;11.88;8.80;;;;;;;;;;5032409;28;20437;-77
2023/05/13 13:22:04;;;;;;;13.55;9.10;;;;;;;;;;5029188;28;20053;-76
2023/05/13 13:24:30;;;;;;;11.38;8.68;;;;;;;;;;5028987;28;20544;-76
2023/05/13 13:26:56;;;;;;;10.23;7.78;;;;;;;;;;5060186;28;20120;-76
2023/05/13 13:29:22;;;;;;;10.55;8.65;;;;;;;;;;5060957;28;20117;-76
2023/05/13 13:31:50;;;;;;;10.40;8.05;;;;;;;;;;5058266;28;20048;-76
2023/05/13 13:34:16;;;;;;;9.32;7.93;;;;;;;;;;5038386;28;20045;-77
2023/05/13 13:36:42;;;;;;;10.77;7.72;;;;;;;;;;5033831;28;20049;-76
2023/05/13 13:39:08;;;;;;;10.65;8.05;;;;;;;;;;5025955;28;20106;-77
2023/05/13 13:41:35;;;;;;;11.40;7.82;;;;;;;;;;5029769;28;20056;-77
2023/05/13 13:44:01;;;;;;;10.00;7.68;;;;;;;;;;5036642;28;20094;-77
2023/05/13 13:46:27;;;;;;;8.85;7.93;;;;;;;;;;5052148;28;20115;-76
2023/05/13 13:48:53;;;;;;;8.35;7.55;;;;;;;;;;5053787;28;20075;-75
2023/05/13 13:51:19;;;;;;;10.98;7.85;;;;;;;;;;5052563;28;20397;-76
2023/05/13 13:53:45;;;;;;;12.13;8.25;;;;;;;;;;5034539;28;20389;-76
2023/05/13 13:56:11;;;;;;;9.57;7.60;;;;;;;;;;5035147;28;20438;-76
2023/05/13 13:58:37;;;;;;;11.40;8.73;;;;;;;;;;5030879;28;20056;-76
2023/05/13 14:01:03;;;;;;;9.55;7.80;;;;;;;;;;5033982;28;20041;-76
2023/05/13 14:03:29;;;;;;;12.38;7.90;;;;;;;;;;5039960;28;20495;-75
2023/05/13 14:05:55;;;;;;;9.50;7.70;;;;;;;;;;5063867;28;20045;-75
2023/05/13 14:08:21;;;;;;;10.02;7.93;;;;;;;;;;5035099;28;20038;-76
2023/05/13 14:10:48;;;;;;;9.15;7.47;;;;;;;;;;5029534;28;20656;-76
2023/05/13 14:13:14;;;;;;;9.93;8.40;;;;;;;;;;5032253;28;20049;-76
2023/05/13 14:15:40;;;;;;;8.88;7.40;;;;;;;;;;5073657;28;20458;-76
2023/05/13 14:18:09;;;;;;;8.82;7.25;;;;;;;;;;5043396;28;20110;-76
2023/05/13 14:20:35;;;;;;;9.70;7.65;;;;;;;;;;5035176;28;20059;-76